< < Back
Terminal Aerodrome Forecast


Current Version              Previous Versions:   1  2  3  4  5  6  7  8  9  

Terminal Aerodrome Forecast

762
FTUS42 KTAE 271726
TAFTLH
TAF
KTLH 271726Z 2718/2818 04008KT P6SM VCSH SCT040
     FM272300 VRB03KT P6SM SKC=

Latest METAR

326
SAUS80 KWBC 280756
MTRTLH
METAR KTLH 280753Z AUTO 00000KT 10SM CLR 27/24 A2992 RMK AO2 SLP131
T02670239


USA.gov is the U.S. government's official web portal to all federal, state and local government web resources and services.